createdAt,value
2023-02-15T00:02:00.437Z,9.60
2023-02-15T00:04:49.876Z,9.40
2023-02-15T00:07:28.256Z,9.40
2023-02-15T00:10:07.242Z,9.40
2023-02-15T00:12:43.793Z,9.40
2023-02-15T00:15:20.113Z,9.50
2023-02-15T00:17:56.700Z,9.50
2023-02-15T00:20:33.444Z,9.40
2023-02-15T00:23:12.053Z,9.30
2023-02-15T00:25:50.068Z,9.40
2023-02-15T00:28:26.419Z,9.60
2023-02-15T00:31:09.089Z,9.60
2023-02-15T00:33:47.293Z,9.70
2023-02-15T00:36:24.094Z,9.70
2023-02-15T00:39:02.932Z,9.80
2023-02-15T00:41:39.453Z,9.80
2023-02-15T00:44:16.293Z,9.70
2023-02-15T00:46:56.650Z,9.70
2023-02-15T00:49:32.719Z,9.60
2023-02-15T00:52:09.556Z,9.60
2023-02-15T00:54:51.035Z,9.60
2023-02-15T00:57:28.064Z,9.50
2023-02-15T01:00:04.595Z,9.60
2023-02-15T01:02:40.534Z,9.50
2023-02-15T01:05:16.822Z,9.40
2023-02-15T01:07:54.443Z,9.50
2023-02-15T01:10:33.615Z,9.40
2023-02-15T01:13:10.233Z,9.40
2023-02-15T01:15:46.881Z,9.30
2023-02-15T01:18:24.938Z,9.30
2023-02-15T01:21:02.056Z,9.30
2023-02-15T01:23:39.794Z,9.30
2023-02-15T01:26:20.387Z,9.40
2023-02-15T01:28:56.745Z,9.40
2023-02-15T01:31:33.003Z,9.40
2023-02-15T01:34:08.933Z,9.40
2023-02-15T01:36:46.744Z,9.40
2023-02-15T01:39:25.477Z,9.30
2023-02-15T01:42:05.824Z,9.20
2023-02-15T01:45:02.381Z,9.20
2023-02-15T01:47:45.526Z,9.20
2023-02-15T01:50:26.738Z,9.20
2023-02-15T01:53:08.436Z,9.10
2023-02-15T01:55:51.030Z,9.20
2023-02-15T01:58:33.776Z,9.10
2023-02-15T02:01:10.452Z,9.20
2023-02-15T02:03:56.194Z,9.10
2023-02-15T02:06:38.051Z,9.20
2023-02-15T02:09:17.487Z,9.20
2023-02-15T02:11:57.428Z,9.30
2023-02-15T02:14:36.794Z,9.30
2023-02-15T02:17:18.478Z,9.30
2023-02-15T02:20:20.484Z,9.20
2023-02-15T02:23:27.958Z,9.20
2023-02-15T02:26:41.084Z,9.40
2023-02-15T02:30:03.240Z,9.50
2023-02-15T02:33:15.944Z,9.30
2023-02-15T02:36:03.223Z,9.50
2023-02-15T02:38:55.777Z,9.40
2023-02-15T02:41:38.451Z,9.50
2023-02-15T02:44:22.965Z,9.50
2023-02-15T02:47:08.455Z,9.60
2023-02-15T02:49:47.993Z,9.50
2023-02-15T02:52:45.588Z,9.50
2023-02-15T02:55:27.587Z,9.60
2023-02-15T02:58:08.010Z,9.50
2023-02-15T03:00:52.035Z,9.50
2023-02-15T03:03:34.381Z,9.60
2023-02-15T03:06:13.118Z,9.60
2023-02-15T03:08:59.634Z,9.80
2023-02-15T03:11:39.600Z,9.80
2023-02-15T03:14:16.451Z,9.80
2023-02-15T03:16:57.740Z,9.90
2023-02-15T03:19:41.914Z,9.90
2023-02-15T03:22:25.679Z,9.80
2023-02-15T03:25:14.962Z,9.90
2023-02-15T03:27:55.284Z,9.80
2023-02-15T03:30:34.519Z,9.50
2023-02-15T03:33:17.356Z,9.50
2023-02-15T03:36:01.113Z,9.60
2023-02-15T03:38:50.276Z,9.70
2023-02-15T03:41:33.079Z,9.60
2023-02-15T03:44:17.935Z,9.70
2023-02-15T03:46:58.720Z,9.70
2023-02-15T03:49:40.912Z,9.80
2023-02-15T03:52:21.429Z,10.00
2023-02-15T03:54:58.525Z,9.60
2023-02-15T03:57:54.953Z,9.60
2023-02-15T04:00:51.006Z,9.70
2023-02-15T04:03:41.125Z,9.70
2023-02-15T04:06:18.095Z,9.60
2023-02-15T04:09:25.606Z,9.60
2023-02-15T04:12:05.064Z,9.50
2023-02-15T04:14:59.960Z,9.50
2023-02-15T04:17:36.183Z,9.50
2023-02-15T04:20:29.655Z,9.60
2023-02-15T04:23:29.241Z,9.70
2023-02-15T04:26:08.901Z,9.80
2023-02-15T04:28:52.138Z,9.70
2023-02-15T04:31:34.838Z,9.60
2023-02-15T04:34:13.059Z,9.50
2023-02-15T04:36:57.187Z,9.50
2023-02-15T04:39:34.903Z,9.40
2023-02-15T04:42:13.894Z,9.40
2023-02-15T04:44:59.553Z,9.40
2023-02-15T04:47:46.620Z,9.40
2023-02-15T04:50:25.590Z,9.50
2023-02-15T04:53:06.388Z,9.60
2023-02-15T04:55:43.730Z,9.50
2023-02-15T04:58:20.315Z,9.60
2023-02-15T05:01:02.107Z,9.50
2023-02-15T05:03:45.983Z,9.70
2023-02-15T05:06:23.690Z,9.50
2023-02-15T05:09:02.367Z,9.50
2023-02-15T05:11:40.717Z,9.40
2023-02-15T05:14:18.331Z,9.50
2023-02-15T05:16:58.203Z,9.60
2023-02-15T05:19:37.949Z,9.80
2023-02-15T05:22:17.756Z,9.70
2023-02-15T05:25:09.152Z,9.80
2023-02-15T05:28:00.897Z,9.90
2023-02-15T05:30:40.185Z,9.90
2023-02-15T05:33:20.293Z,9.80
2023-02-15T05:36:02.523Z,9.70
2023-02-15T05:38:41.275Z,9.90
2023-02-15T05:41:19.662Z,9.90
2023-02-15T05:44:01.228Z,9.90
2023-02-15T05:46:37.657Z,9.90
2023-02-15T05:49:17.086Z,9.80
2023-02-15T05:51:57.359Z,10.00
2023-02-15T05:54:37.261Z,9.70
2023-02-15T05:57:25.933Z,9.90
2023-02-15T06:00:10.978Z,9.90
2023-02-15T06:02:50.702Z,10.00
2023-02-15T06:05:29.517Z,10.10
2023-02-15T06:08:13.043Z,10.00
2023-02-15T06:10:55.658Z,10.10
2023-02-15T06:13:35.457Z,10.20
2023-02-15T06:16:15.403Z,10.10
2023-02-15T06:18:53.864Z,10.20
2023-02-15T06:21:31.060Z,10.00
2023-02-15T06:24:11.942Z,10.10
2023-02-15T06:26:49.852Z,10.20
2023-02-15T06:29:26.840Z,10.40
2023-02-15T06:32:06.806Z,10.30
2023-02-15T06:34:48.965Z,10.60
2023-02-15T06:37:25.301Z,10.30
2023-02-15T06:40:06.749Z,10.40
2023-02-15T06:42:43.545Z,10.50
2023-02-15T06:45:19.622Z,10.20
2023-02-15T06:47:55.620Z,10.40
2023-02-15T06:50:34.804Z,10.50
2023-02-15T06:53:11.843Z,10.40
2023-02-15T06:55:50.584Z,10.50
2023-02-15T06:58:26.661Z,10.40
2023-02-15T07:01:08.993Z,10.50
2023-02-15T07:03:48.003Z,10.70
2023-02-15T07:06:24.281Z,10.50
2023-02-15T07:09:04.719Z,10.40
2023-02-15T07:12:26.272Z,10.50
2023-02-15T07:15:11.898Z,10.50
2023-02-15T07:17:48.585Z,10.50
2023-02-15T07:20:27.257Z,10.50
2023-02-15T07:23:04.761Z,10.40
2023-02-15T07:25:41.310Z,10.60
2023-02-15T07:28:18.992Z,10.60
2023-02-15T07:31:00.348Z,10.70
2023-02-15T07:33:41.923Z,10.80
2023-02-15T07:36:21.817Z,10.60
2023-02-15T07:38:58.530Z,10.70
2023-02-15T07:41:35.410Z,10.80
2023-02-15T07:44:20.888Z,10.70
2023-02-15T07:46:59.636Z,10.70
2023-02-15T07:49:39.100Z,10.60
2023-02-15T07:52:16.173Z,10.60
2023-02-15T07:54:53.882Z,10.50
2023-02-15T07:57:32.503Z,10.50
2023-02-15T08:00:09.732Z,10.40
2023-02-15T08:03:08.199Z,10.40
2023-02-15T08:05:53.279Z,10.40
2023-02-15T08:08:38.909Z,10.50
2023-02-15T08:11:39.485Z,10.50
2023-02-15T08:14:19.243Z,10.60
2023-02-15T08:17:00.204Z,10.50
2023-02-15T08:19:43.092Z,10.40
2023-02-15T08:22:20.635Z,10.60
2023-02-15T08:25:00.416Z,10.70
2023-02-15T08:27:44.123Z,10.70
2023-02-15T08:30:23.692Z,10.70
2023-02-15T08:33:00.863Z,10.90
2023-02-15T08:35:41.065Z,10.70
2023-02-15T08:38:18.579Z,10.60
2023-02-15T08:40:57.688Z,10.50
2023-02-15T08:43:38.057Z,10.40
2023-02-15T08:46:16.776Z,10.50
2023-02-15T08:48:53.268Z,10.40
2023-02-15T08:51:38.201Z,10.40
2023-02-15T08:54:18.030Z,10.30
2023-02-15T08:56:55.875Z,10.40
2023-02-15T08:59:35.278Z,10.40
2023-02-15T09:02:20.177Z,10.40
2023-02-15T09:05:02.596Z,10.40
2023-02-15T09:07:45.942Z,10.30
2023-02-15T09:10:23.710Z,10.30
2023-02-15T09:13:00.664Z,10.20
2023-02-15T09:15:40.537Z,10.10
2023-02-15T09:18:19.610Z,10.10
2023-02-15T09:20:55.870Z,10.10
2023-02-15T09:23:41.439Z,10.20
2023-02-15T09:26:29.451Z,10.20
2023-02-15T09:29:15.339Z,10.10
2023-02-15T09:31:56.198Z,10.00
2023-02-15T09:34:34.840Z,10.10
2023-02-15T09:37:13.672Z,10.10
2023-02-15T09:40:00.552Z,10.00
2023-02-15T09:43:07.062Z,10.00
2023-02-15T09:46:05.508Z,10.00
2023-02-15T09:48:48.629Z,10.10
2023-02-15T09:51:47.582Z,10.20
2023-02-15T09:54:36.694Z,10.10
2023-02-15T09:57:24.741Z,10.00
2023-02-15T10:00:24.739Z,9.90
2023-02-15T10:03:25.051Z,10.00
2023-02-15T10:06:39.830Z,10.00
2023-02-15T10:09:57.508Z,9.90
2023-02-15T10:13:01.403Z,9.80
2023-02-15T10:15:56.813Z,9.90
2023-02-15T10:18:58.842Z,9.80
2023-02-15T10:21:49.954Z,9.80
2023-02-15T10:24:48.905Z,9.80
2023-02-15T10:27:32.069Z,9.60
2023-02-15T10:30:17.381Z,9.80
2023-02-15T10:33:04.798Z,9.80
2023-02-15T10:35:52.886Z,9.80
2023-02-15T10:38:36.225Z,9.90
2023-02-15T10:41:23.782Z,9.90
2023-02-15T10:44:20.812Z,9.80
2023-02-15T10:47:15.779Z,9.80
2023-02-15T10:50:09.352Z,9.60
2023-02-15T10:53:00.896Z,9.50
2023-02-15T10:55:50.698Z,9.40
2023-02-15T10:58:45.656Z,9.20
2023-02-15T11:01:32.660Z,9.20
2023-02-15T11:04:47.977Z,9.30
2023-02-15T11:07:30.500Z,9.40
2023-02-15T11:10:22.085Z,9.30
2023-02-15T11:13:10.760Z,9.40
2023-02-15T11:15:53.653Z,9.40
2023-02-15T11:18:43.556Z,9.40
2023-02-15T11:21:28.034Z,9.40
2023-02-15T11:24:10.984Z,9.40
2023-02-15T11:26:50.845Z,9.40
2023-02-15T11:29:33.196Z,9.40
2023-02-15T11:32:20.212Z,9.40
2023-02-15T11:35:02.408Z,9.40
2023-02-15T11:37:48.841Z,9.30
2023-02-15T11:40:30.893Z,9.30
2023-02-15T11:43:11.190Z,9.10
2023-02-15T11:45:53.038Z,9.20
2023-02-15T11:48:38.010Z,9.30
2023-02-15T11:51:23.743Z,9.20
2023-02-15T11:54:06.706Z,9.40
2023-02-15T11:56:55.966Z,9.40
2023-02-15T11:59:40.139Z,9.30
2023-02-15T12:02:30.131Z,9.30
2023-02-15T12:05:12.143Z,9.30
2023-02-15T12:08:03.527Z,9.40
2023-02-15T12:10:50.750Z,9.30
2023-02-15T12:13:39.518Z,9.30
2023-02-15T12:16:35.462Z,9.20
2023-02-15T12:19:20.267Z,9.30
2023-02-15T12:22:00.164Z,9.30
2023-02-15T12:24:42.858Z,9.40
2023-02-15T12:27:27.233Z,9.50
2023-02-15T12:30:09.741Z,9.70
2023-02-15T12:32:58.860Z,9.60
2023-02-15T12:35:45.145Z,9.50
2023-02-15T12:38:32.704Z,9.40
2023-02-15T12:41:32.464Z,9.30
2023-02-15T12:44:26.631Z,9.30
2023-02-15T12:47:12.051Z,9.20
2023-02-15T12:50:12.746Z,9.20
2023-02-15T12:52:53.457Z,9.30
2023-02-15T12:55:34.619Z,9.30
2023-02-15T12:58:25.818Z,9.20
2023-02-15T13:01:24.118Z,9.30
2023-02-15T13:04:32.547Z,9.30
2023-02-15T13:07:10.937Z,9.20
2023-02-15T13:09:49.421Z,9.20
2023-02-15T13:12:33.073Z,9.20
2023-02-15T13:15:35.172Z,9.10
2023-02-15T13:18:23.319Z,9.20
2023-02-15T13:21:07.860Z,9.40
2023-02-15T13:23:45.804Z,9.20
2023-02-15T13:26:26.971Z,9.10
2023-02-15T13:29:07.950Z,9.10
2023-02-15T13:31:52.410Z,9.00
2023-02-15T13:34:39.070Z,9.10
2023-02-15T13:37:25.482Z,8.90
2023-02-15T13:40:10.438Z,8.90
2023-02-15T13:42:52.617Z,8.90
2023-02-15T13:45:47.192Z,9.00
2023-02-15T13:48:45.035Z,9.10
2023-02-15T13:51:44.631Z,9.10
2023-02-15T13:54:43.197Z,9.00
2023-02-15T13:57:40.290Z,9.10
2023-02-15T14:00:40.735Z,8.90
2023-02-15T14:04:04.499Z,9.10
2023-02-15T14:07:31.040Z,9.10
2023-02-15T14:10:29.704Z,9.10
2023-02-15T14:13:29.345Z,8.90
2023-02-15T14:16:10.681Z,9.10
2023-02-15T14:18:55.997Z,8.90
2023-02-15T14:21:38.087Z,9.00
2023-02-15T14:24:32.475Z,8.90
2023-02-15T14:27:29.075Z,8.80
2023-02-15T14:30:17.887Z,8.90
2023-02-15T14:33:02.936Z,8.90
2023-02-15T14:35:40.653Z,9.00
2023-02-15T14:38:27.584Z,9.00
2023-02-15T14:41:11.051Z,8.90
2023-02-15T14:43:56.123Z,8.90
2023-02-15T14:46:49.020Z,8.90
2023-02-15T14:49:41.187Z,8.90
2023-02-15T14:52:23.024Z,8.70
2023-02-15T14:55:12.210Z,8.70
2023-02-15T14:58:08.335Z,8.70
2023-02-15T15:00:49.422Z,8.60
2023-02-15T15:03:33.315Z,8.50
2023-02-15T15:06:11.277Z,8.60
2023-02-15T15:08:51.182Z,8.60
2023-02-15T15:11:47.818Z,8.60
2023-02-15T15:15:01.617Z,8.70
2023-02-15T15:18:05.647Z,8.80
2023-02-15T15:21:04.773Z,8.70
2023-02-15T15:23:51.307Z,8.60
2023-02-15T15:26:50.611Z,8.60
2023-02-15T15:29:58.241Z,8.50
2023-02-15T15:32:40.371Z,8.60
2023-02-15T15:35:34.285Z,8.80
2023-02-15T15:38:31.754Z,8.70
2023-02-15T15:41:24.028Z,8.70
2023-02-15T15:44:38.352Z,8.70
2023-02-15T15:48:07.477Z,8.70
2023-02-15T15:50:49.654Z,8.70
2023-02-15T15:53:33.538Z,8.80
2023-02-15T15:56:23.491Z,8.70
2023-02-15T15:59:03.152Z,8.70
2023-02-15T16:01:46.596Z,8.70
2023-02-15T16:04:35.871Z,8.80
2023-02-15T16:07:44.841Z,8.90
2023-02-15T16:10:35.212Z,8.90
2023-02-15T16:13:27.775Z,8.90
2023-02-15T16:16:07.682Z,9.00
2023-02-15T16:18:48.423Z,9.00
2023-02-15T16:21:34.450Z,9.00
2023-02-15T16:24:41.391Z,9.00
2023-02-15T16:27:51.271Z,9.00
2023-02-15T16:30:45.499Z,8.90
2023-02-15T16:33:27.862Z,8.90
2023-02-15T16:36:10.183Z,9.10
2023-02-15T16:39:27.338Z,9.00
2023-02-15T16:42:08.020Z,9.10
2023-02-15T16:44:49.807Z,9.20
2023-02-15T16:47:31.129Z,9.10
2023-02-15T16:50:11.155Z,9.00
2023-02-15T16:52:53.379Z,8.90
2023-02-15T16:55:31.272Z,9.00
2023-02-15T16:58:13.361Z,9.10
2023-02-15T17:00:54.561Z,9.10
2023-02-15T17:03:31.805Z,9.10
2023-02-15T17:06:09.982Z,9.20
2023-02-15T17:08:50.754Z,9.10
2023-02-15T17:11:28.412Z,9.00
2023-02-15T17:14:27.877Z,8.90
2023-02-15T17:17:08.853Z,9.10
2023-02-15T17:19:55.320Z,9.20
2023-02-15T17:22:33.328Z,9.30
2023-02-15T17:25:11.267Z,9.20
2023-02-15T17:27:49.311Z,9.10
2023-02-15T17:30:36.982Z,9.10
2023-02-15T17:33:31.555Z,8.90
2023-02-15T17:36:16.822Z,8.90
2023-02-15T17:39:10.006Z,8.90
2023-02-15T17:41:47.317Z,8.90
2023-02-15T17:44:22.891Z,9.00
2023-02-15T17:47:02.596Z,9.00
2023-02-15T17:49:40.093Z,8.90
2023-02-15T17:52:18.655Z,8.90
2023-02-15T17:55:10.370Z,9.00
2023-02-15T17:57:46.806Z,9.00
2023-02-15T18:00:39.172Z,9.10
2023-02-15T18:03:34.149Z,9.20
2023-02-15T18:06:25.558Z,9.50
2023-02-15T18:09:16.575Z,9.40
2023-02-15T18:11:53.117Z,9.50
2023-02-15T18:14:28.805Z,9.40
2023-02-15T18:17:05.580Z,9.50
2023-02-15T18:19:43.889Z,9.50
2023-02-15T18:22:21.849Z,9.40
2023-02-15T18:24:57.757Z,9.40
2023-02-15T18:27:34.793Z,9.40
2023-02-15T18:30:10.939Z,9.30
2023-02-15T18:32:47.468Z,9.30
2023-02-15T18:35:26.605Z,9.00
2023-02-15T18:38:03.225Z,9.00
2023-02-15T18:40:38.711Z,9.00
2023-02-15T18:43:17.819Z,9.10
2023-02-15T18:45:54.759Z,9.10
2023-02-15T18:48:30.441Z,9.10
2023-02-15T18:51:11.332Z,9.10
2023-02-15T18:53:46.983Z,9.00
2023-02-15T18:56:27.222Z,9.00
2023-02-15T18:59:02.820Z,9.00
2023-02-15T19:01:38.491Z,9.00
2023-02-15T19:04:14.342Z,9.00
2023-02-15T19:06:53.405Z,8.90
2023-02-15T19:09:31.141Z,8.90
2023-02-15T19:12:06.315Z,8.90
2023-02-15T19:14:42.043Z,9.20
2023-02-15T19:17:21.722Z,9.00
2023-02-15T19:19:57.873Z,8.90
2023-02-15T19:22:36.637Z,9.10
2023-02-15T19:25:12.355Z,9.30
2023-02-15T19:27:48.070Z,9.20
2023-02-15T19:30:26.571Z,9.00
2023-02-15T19:33:01.198Z,8.90
2023-02-15T19:35:38.541Z,8.80
2023-02-15T19:38:23.156Z,8.80
2023-02-15T19:40:59.132Z,9.00
2023-02-15T19:43:33.810Z,9.10
2023-02-15T19:46:09.581Z,9.20
2023-02-15T19:48:45.352Z,9.20
2023-02-15T19:51:20.923Z,9.20
2023-02-15T19:53:59.703Z,9.20
2023-02-15T19:56:34.316Z,9.10
2023-02-15T19:59:08.628Z,9.30
2023-02-15T20:01:43.445Z,9.10
2023-02-15T20:04:17.564Z,9.20
2023-02-15T20:06:54.275Z,9.20
2023-02-15T20:09:33.931Z,9.00
2023-02-15T20:12:08.775Z,8.90
2023-02-15T20:14:44.133Z,8.80
2023-02-15T20:17:18.664Z,8.80
2023-02-15T20:19:53.429Z,8.90
2023-02-15T20:22:30.703Z,9.00
2023-02-15T20:25:07.677Z,8.90
2023-02-15T20:27:43.760Z,8.90
2023-02-15T20:30:23.041Z,9.00
2023-02-15T20:32:57.475Z,9.20
2023-02-15T20:35:32.719Z,9.20
2023-02-15T20:38:08.419Z,9.10
2023-02-15T20:41:05.475Z,9.10
2023-02-15T20:43:39.310Z,9.00
2023-02-15T20:46:13.189Z,9.00
2023-02-15T20:48:48.060Z,8.70
2023-02-15T20:51:27.065Z,8.90
2023-02-15T20:54:02.669Z,9.00
2023-02-15T20:56:40.658Z,9.10
2023-02-15T20:59:29.625Z,9.10
2023-02-15T21:02:05.645Z,9.10
2023-02-15T21:04:39.426Z,9.20
2023-02-15T21:07:19.147Z,9.20
2023-02-15T21:09:56.685Z,9.20
2023-02-15T21:12:33.541Z,9.20
2023-02-15T21:15:11.861Z,9.20
2023-02-15T21:17:45.886Z,9.20
2023-02-15T21:20:19.024Z,9.20
2023-02-15T21:22:52.552Z,9.20
2023-02-15T21:25:30.535Z,9.20
2023-02-15T21:28:06.074Z,9.20
2023-02-15T21:30:40.659Z,9.20
2023-02-15T21:33:15.142Z,9.30
2023-02-15T21:35:51.915Z,9.20
2023-02-15T21:38:28.006Z,9.20
2023-02-15T21:41:23.367Z,9.20
2023-02-15T21:44:15.418Z,9.20
2023-02-15T21:47:05.669Z,9.00
2023-02-15T21:49:39.764Z,9.00
2023-02-15T21:52:16.213Z,9.00
2023-02-15T21:54:51.048Z,8.80
2023-02-15T21:57:26.591Z,9.00
2023-02-15T22:00:02.885Z,9.10
2023-02-15T22:02:40.570Z,9.10
2023-02-15T22:05:20.725Z,9.10
2023-02-15T22:07:54.947Z,9.10
2023-02-15T22:10:31.629Z,9.00
2023-02-15T22:13:08.642Z,9.00
2023-02-15T22:15:44.964Z,8.90
2023-02-15T22:18:31.536Z,8.70
2023-02-15T22:21:08.270Z,8.80
2023-02-15T22:23:43.911Z,8.80
2023-02-15T22:26:22.950Z,8.90
2023-02-15T22:28:58.059Z,8.90
2023-02-15T22:31:35.482Z,9.00
2023-02-15T22:34:10.887Z,9.00
2023-02-15T22:36:46.501Z,8.90
2023-02-15T22:39:21.872Z,8.80
2023-02-15T22:41:57.437Z,8.90
2023-02-15T22:44:38.053Z,8.90
2023-02-15T22:47:24.740Z,9.00
2023-02-15T22:50:01.266Z,9.10
2023-02-15T22:52:36.275Z,9.10
2023-02-15T22:55:12.226Z,9.00
2023-02-15T22:57:48.188Z,9.00
2023-02-15T23:00:26.368Z,9.00
2023-02-15T23:03:04.573Z,9.00
2023-02-15T23:05:39.366Z,9.00
2023-02-15T23:08:16.602Z,9.00
2023-02-15T23:10:56.976Z,8.90
2023-02-15T23:13:35.606Z,8.90
2023-02-15T23:16:12.586Z,8.90
2023-02-15T23:18:51.718Z,8.90
2023-02-15T23:21:28.716Z,9.00
2023-02-15T23:24:15.182Z,8.80
2023-02-15T23:26:50.854Z,8.80
2023-02-15T23:29:29.957Z,8.70
2023-02-15T23:32:05.616Z,8.70
2023-02-15T23:34:43.726Z,8.80
2023-02-15T23:37:21.848Z,8.80
2023-02-15T23:40:13.599Z,8.80
2023-02-15T23:42:49.525Z,8.80
2023-02-15T23:45:28.890Z,8.90
2023-02-15T23:48:21.496Z,8.90
2023-02-15T23:50:58.640Z,9.00
2023-02-15T23:53:34.820Z,8.90
2023-02-15T23:56:10.570Z,8.90
2023-02-15T23:58:48.669Z,8.80
